Time;durP1;ratioP1;P1;durP2;ratioP2;P2;SDS_P1;SDS_P2;PMS_P1;PMS_P2;Temp;Humidity;BMP_temperature;BMP_pressure;BME280_temperature;BME280_humidity;BME280_pressure;Samples;Min_cycle;Max_cycle;Signal;HPM_P1;HPM_P2
2021/10/24 00:02:27;;;;;;;1999.90;999.90;;;;;;;6.04;48.87;102554.59;4989672;28;96780;-72
2021/10/24 00:04:55;;;;;;;1999.90;999.90;;;;;;;6.15;48.45;102560.59;4978368;28;99512;-71
2021/10/24 00:07:23;;;;;;;1999.90;999.90;;;;;;;5.92;48.96;102552.84;4981920;28;99530;-75
2021/10/24 00:09:51;;;;;;;1999.90;999.90;;;;;;;5.92;48.90;102553.75;4980600;28;97180;-73
2021/10/24 00:12:19;;;;;;;1999.90;999.90;;;;;;;5.73;49.55;102557.69;4982105;28;97098;-75
2021/10/24 00:14:47;;;;;;;1999.90;999.90;;;;;;;5.65;49.63;102559.78;4980688;28;98659;-74
2021/10/24 00:17:16;;;;;;;1999.90;999.90;;;;;;;5.68;49.73;102549.44;4982678;28;99215;-72
2021/10/24 00:19:45;;;;;;;1999.90;999.90;;;;;;;5.67;49.82;102550.25;4976126;28;98183;-71
2021/10/24 00:22:13;;;;;;;1999.90;999.90;;;;;;;5.66;49.65;102552.78;4976952;28;96854;-73
2021/10/24 00:24:40;;;;;;;1999.90;999.90;;;;;;;5.70;49.69;102546.91;4981905;28;98078;-70
2021/10/24 00:27:08;;;;;;;1999.90;999.90;;;;;;;5.58;49.96;102557.53;4981541;28;98079;-73
2021/10/24 00:29:36;;;;;;;1999.90;999.90;;;;;;;5.85;49.40;102551.50;4980153;28;97261;-73
2021/10/24 00:32:06;;;;;;;1999.90;999.90;;;;;;;6.07;48.94;102552.16;4988928;28;99276;-73
2021/10/24 00:34:33;;;;;;;1999.90;999.90;;;;;;;6.19;48.63;102547.69;4980411;28;98933;-72
2021/10/24 00:37:05;;;;;;;1999.90;999.90;;;;;;;6.23;48.51;102539.13;4977966;28;99047;-75
2021/10/24 00:39:37;;;;;;;1999.90;999.90;;;;;;;6.44;47.98;102549.34;4986046;28;96722;-72
2021/10/24 00:42:05;;;;;;;1999.90;999.90;;;;;;;6.47;47.64;102558.38;4989708;28;97370;-70
2021/10/24 00:44:36;;;;;;;1999.90;999.90;;;;;;;6.37;48.04;102557.69;4988874;28;99369;-73
2021/10/24 00:47:06;;;;;;;1999.90;999.90;;;;;;;6.34;48.07;102557.50;4967453;28;100770;-72
2021/10/24 00:49:35;;;;;;;1999.90;999.90;;;;;;;6.34;48.27;102557.50;4984841;28;96684;-77
2021/10/24 00:52:06;;;;;;;1999.90;999.90;;;;;;;6.38;48.02;102544.56;4988150;28;97035;-75
2021/10/24 00:54:35;;;;;;;1999.90;999.90;;;;;;;6.40;48.13;102548.22;4976771;28;98987;-72
2021/10/24 00:57:03;;;;;;;1999.90;999.90;;;;;;;6.65;47.43;102534.88;4979618;28;98798;-74
2021/10/24 00:59:31;;;;;;;1999.90;999.90;;;;;;;6.54;47.34;102542.13;4981040;28;96940;-75
2021/10/24 01:01:59;;;;;;;1999.90;999.90;;;;;;;5.88;49.18;102540.25;4985838;28;96932;-71
2021/10/24 01:04:27;;;;;;;1999.90;999.90;;;;;;;5.73;49.23;102537.47;5001457;28;96805;-74
2021/10/24 01:06:58;;;;;;;1999.90;999.90;;;;;;;6.24;48.25;102534.78;4962150;28;99193;-73
2021/10/24 01:09:30;;;;;;;1999.90;999.90;;;;;;;5.67;49.50;102534.41;4961466;28;97986;-74
2021/10/24 01:11:58;;;;;;;1999.90;999.90;;;;;;;5.53;49.79;102532.53;4980678;28;96903;-71
2021/10/24 01:14:27;;;;;;;1999.90;999.90;;;;;;;5.34;50.20;102533.81;4982832;28;100613;-77
2021/10/24 01:16:55;;;;;;;1999.90;999.90;;;;;;;5.23;50.20;102536.59;4960893;28;99550;-74
2021/10/24 01:19:24;;;;;;;1999.90;999.90;;;;;;;5.12;50.45;102536.63;4986140;28;97265;-71
2021/10/24 01:21:54;;;;;;;1999.90;999.90;;;;;;;5.14;50.30;102535.03;4992780;28;97123;-70
2021/10/24 01:24:25;;;;;;;1999.90;999.90;;;;;;;4.99;50.71;102539.19;5005679;28;97615;-73
2021/10/24 01:26:54;;;;;;;1999.90;999.90;;;;;;;4.86;50.91;102542.69;4979047;28;100915;-71
2021/10/24 01:29:23;;;;;;;1999.90;999.90;;;;;;;4.93;50.64;102536.09;4965516;28;97232;-75
2021/10/24 01:31:51;;;;;;;1999.90;999.90;;;;;;;5.30;49.87;102532.69;4969772;28;97229;-76
2021/10/24 01:34:21;;;;;;;1999.90;999.90;;;;;;;5.43;49.57;102530.06;4967263;28;101135;-74
2021/10/24 01:36:49;;;;;;;1999.90;999.90;;;;;;;5.04;50.42;102537.81;4986651;28;98900;-69
2021/10/24 01:39:19;;;;;;;1999.90;999.90;;;;;;;4.90;50.72;102523.59;4966069;28;97471;-73
2021/10/24 01:41:46;;;;;;;1999.90;999.90;;;;;;;4.83;50.90;102530.97;4989845;28;96982;-71
2021/10/24 01:44:15;;;;;;;1999.90;999.90;;;;;;;4.70;51.14;102523.88;4967813;28;97932;-70
2021/10/24 01:46:43;;;;;;;1999.90;999.90;;;;;;;5.01;50.24;102517.38;4967001;28;99302;-71
2021/10/24 01:49:11;;;;;;;1999.90;999.90;;;;;;;5.10;50.00;102509.25;4966152;28;97349;-70
2021/10/24 01:51:39;;;;;;;1999.90;999.90;;;;;;;4.81;50.69;102511.50;4966335;28;97233;-71
2021/10/24 01:54:06;;;;;;;1999.90;999.90;;;;;;;4.64;50.93;102515.56;4972165;28;99210;-71
2021/10/24 01:56:36;;;;;;;1999.90;999.90;;;;;;;4.53;51.11;102519.13;4982365;28;97751;-75
2021/10/24 01:59:03;;;;;;;1999.90;999.90;;;;;;;4.44;51.19;102514.91;4963030;28;98988;-70
2021/10/24 02:01:51;;;;;;;1999.90;999.90;;;;;;;4.33;51.77;102522.03;4985474;28;97188;-72
2021/10/24 02:04:49;;;;;;;1999.90;999.90;;;;;;;4.74;50.54;102514.47;4969014;28;100135;-73
2021/10/24 02:07:22;;;;;;;1999.90;999.90;;;;;;;4.86;50.64;102510.09;4970394;28;98919;-69
2021/10/24 02:09:50;;;;;;;1999.90;999.90;;;;;;;4.90;50.18;102512.16;4972238;28;96907;-71
2021/10/24 02:12:21;;;;;;;1999.90;999.90;;;;;;;4.96;50.06;102513.50;4967255;28;97406;-71
2021/10/24 02:14:53;;;;;;;1999.90;999.90;;;;;;;5.03;49.59;102506.97;4964755;28;99690;-72
2021/10/24 02:17:21;;;;;;;1999.90;999.90;;;;;;;5.04;49.68;102508.81;4970479;28;98863;-73
2021/10/24 02:19:49;;;;;;;1999.90;999.90;;;;;;;5.03;49.47;102509.59;4989469;28;96724;-73
2021/10/24 02:22:17;;;;;;;1999.90;999.90;;;;;;;5.05;49.63;102516.81;4972440;28;97799;-73
2021/10/24 02:24:45;;;;;;;1999.90;999.90;;;;;;;5.02;49.62;102513.03;4970686;28;99392;-71
2021/10/24 02:27:16;;;;;;;1999.90;999.90;;;;;;;5.04;49.62;102511.44;4973834;28;101924;-73
2021/10/24 02:29:46;;;;;;;1999.90;999.90;;;;;;;5.14;49.27;102512.19;4967206;28;97615;-72
2021/10/24 02:32:14;;;;;;;1999.90;999.90;;;;;;;5.02;49.58;102502.47;4967921;28;97162;-73
2021/10/24 02:35:01;;;;;;;1999.90;999.90;;;;;;;4.99;49.87;102512.81;4981195;28;98721;-72
2021/10/24 02:37:31;;;;;;;1999.90;999.90;;;;;;;4.94;49.61;102509.84;4964690;28;98265;-75
2021/10/24 02:40:03;;;;;;;1999.90;999.90;;;;;;;4.88;49.69;102509.38;4971241;28;96899;-72
2021/10/24 02:42:34;;;;;;;1999.90;999.90;;;;;;;5.02;49.26;102508.72;4973162;28;97165;-71
2021/10/24 02:45:05;;;;;;;1999.90;999.90;;;;;;;5.12;49.02;102502.31;4985579;28;99372;-71
2021/10/24 02:47:33;;;;;;;1999.90;999.90;;;;;;;5.19;48.79;102512.53;4972663;28;98812;-75
2021/10/24 02:50:01;;;;;;;1999.90;999.90;;;;;;;5.14;48.88;102503.34;4992437;28;96899;-75
2021/10/24 02:52:31;;;;;;;1999.90;999.90;;;;;;;5.12;48.72;102505.88;4965157;28;96893;-73
2021/10/24 02:55:00;;;;;;;1999.90;999.90;;;;;;;5.18;48.52;102515.97;4971845;28;99633;-72
2021/10/24 02:57:28;;;;;;;1999.90;999.90;;;;;;;5.07;48.84;102511.66;4966035;28;100913;-73
2021/10/24 02:59:58;;;;;;;1999.90;999.90;;;;;;;5.03;48.84;102514.88;4972124;28;97562;-71
2021/10/24 03:02:27;;;;;;;1999.90;999.90;;;;;;;5.00;48.84;102514.63;4972045;28;96747;-72
2021/10/24 03:04:55;;;;;;;1999.90;999.90;;;;;;;4.99;48.73;102524.25;4970177;28;98032;-72
2021/10/24 03:07:23;;;;;;;1999.90;999.90;;;;;;;4.92;48.90;102518.44;4966613;28;101027;-72
2021/10/24 03:09:51;;;;;;;1999.90;999.90;;;;;;;4.86;49.08;102525.94;4971266;28;96857;-75
2021/10/24 03:12:18;;;;;;;1999.90;999.90;;;;;;;4.86;49.24;102523.28;4970503;28;96881;-73
2021/10/24 03:14:46;;;;;;;1999.90;999.90;;;;;;;4.80;49.16;102530.75;4963967;28;97711;-72
2021/10/24 03:17:17;;;;;;;1999.90;999.90;;;;;;;4.80;49.16;102528.13;4984266;28;97614;-73
2021/10/24 03:19:46;;;;;;;1999.90;999.90;;;;;;;4.80;49.09;102533.38;4969638;28;97495;-73
2021/10/24 03:22:14;;;;;;;1999.90;999.90;;;;;;;4.85;48.87;102532.00;4967591;28;96921;-71
2021/10/24 03:24:42;;;;;;;1999.90;999.90;;;;;;;4.78;49.18;102533.28;4985662;28;97275;-73
2021/10/24 03:27:10;;;;;;;1999.90;999.90;;;;;;;4.69;49.23;102531.69;4966265;28;98363;-71
2021/10/24 03:29:38;;;;;;;1999.90;999.90;;;;;;;4.67;49.43;102526.31;4989540;28;96912;-72
2021/10/24 03:32:07;;;;;;;1999.90;999.90;;;;;;;4.69;49.28;102530.00;4972960;28;97130;-73
2021/10/24 03:34:35;;;;;;;1999.90;999.90;;;;;;;4.65;49.47;102530.56;4985135;28;98931;-72
2021/10/24 03:37:04;;;;;;;1999.90;999.90;;;;;;;4.63;49.37;102532.16;4982627;28;98204;-72
2021/10/24 03:39:36;;;;;;;1999.90;999.90;;;;;;;4.60;49.24;102536.31;4967419;28;98446;-72
2021/10/24 03:42:05;;;;;;;1999.90;999.90;;;;;;;4.64;49.21;102527.81;4984636;28;96534;-72
2021/10/24 03:44:33;;;;;;;1999.90;999.90;;;;;;;4.62;48.89;102526.78;4968166;28;99435;-72
2021/10/24 03:47:01;;;;;;;1999.90;999.90;;;;;;;4.61;48.72;102530.25;4967823;28;98012;-73
2021/10/24 03:49:31;;;;;;;1999.90;999.90;;;;;;;4.13;49.74;102535.44;4985821;28;97300;-72
2021/10/24 03:51:58;;;;;;;1999.90;999.90;;;;;;;3.87;50.64;102536.13;4989246;28;97243;-73
2021/10/24 03:54:27;;;;;;;1999.90;999.90;;;;;;;4.16;49.63;102536.59;4969544;28;99235;-73
2021/10/24 03:56:56;;;;;;;1999.90;999.90;;;;;;;3.75;51.04;102543.06;4966218;28;101582;-76
2021/10/24 03:59:24;;;;;;;1999.90;999.90;;;;;;;3.75;50.80;102548.31;4986966;28;96847;-73
2021/10/24 04:01:53;;;;;;;1999.90;999.90;;;;;;;3.75;50.96;102535.16;4971988;28;96801;-76
2021/10/24 04:04:23;;;;;;;1999.90;999.90;;;;;;;3.54;51.29;102545.72;4968235;28;99109;-73
2021/10/24 04:06:50;;;;;;;1999.90;999.90;;;;;;;3.49;51.52;102550.66;4978095;28;100695;-72
2021/10/24 04:09:18;;;;;;;1999.90;999.90;;;;;;;3.41;50.94;102551.75;4959467;28;99374;-73
2021/10/24 04:11:48;;;;;;;1999.90;999.90;;;;;;;3.35;51.21;102551.28;4965472;28;97883;-75
2021/10/24 04:14:17;;;;;;;1999.90;999.90;;;;;;;3.30;51.57;102557.91;4982986;28;97695;-72
2021/10/24 04:16:45;;;;;;;1999.90;999.90;;;;;;;3.23;51.66;102545.06;4968032;28;99493;-73
2021/10/24 04:19:26;;;;;;;1999.90;999.90;;;;;;;3.19;51.86;102556.13;4968760;28;97196;-72
2021/10/24 04:21:57;;;;;;;1999.90;999.90;;;;;;;3.12;51.36;102554.75;4969911;28;97182;-74
2021/10/24 04:24:25;;;;;;;1999.90;999.90;;;;;;;3.16;51.49;102554.19;4968686;28;99443;-71
2021/10/24 04:26:55;;;;;;;1999.90;999.90;;;;;;;3.18;51.43;102546.41;4966737;28;97766;-74
2021/10/24 04:29:23;;;;;;;1999.90;999.90;;;;;;;3.10;51.10;102552.78;4968277;28;97458;-72
2021/10/24 04:31:50;;;;;;;1999.90;999.90;;;;;;;3.04;51.63;102547.03;4986927;28;97566;-72
2021/10/24 04:34:18;;;;;;;1999.90;999.90;;;;;;;2.98;51.50;102551.81;4982983;28;98919;-73
2021/10/24 04:36:46;;;;;;;1999.90;999.90;;;;;;;2.93;52.25;102540.03;4982117;28;97979;-72
2021/10/24 04:39:14;;;;;;;1999.90;999.90;;;;;;;2.93;51.94;102547.91;4967171;28;96987;-69
2021/10/24 04:41:41;;;;;;;1999.90;999.90;;;;;;;2.88;51.69;102544.91;4971360;28;97496;-73
2021/10/24 04:44:11;;;;;;;1999.90;999.90;;;;;;;2.81;51.97;102547.84;4965340;28;100760;-72
2021/10/24 04:46:40;;;;;;;1999.90;999.90;;;;;;;2.82;52.04;102540.88;4970743;28;100359;-72
2021/10/24 04:49:09;;;;;;;1999.90;999.90;;;;;;;3.23;51.10;102537.16;4989202;28;97534;-72
2021/10/24 04:51:36;;;;;;;1999.90;999.90;;;;;;;2.97;51.37;102544.72;4970869;28;96653;-74
2021/10/24 04:54:06;;;;;;;1999.90;999.90;;;;;;;2.87;51.94;102542.16;4987179;28;98042;-73
2021/10/24 04:56:34;;;;;;;1999.90;999.90;;;;;;;3.29;50.70;102534.09;4966700;28;99300;-73
2021/10/24 04:59:02;;;;;;;1999.90;999.90;;;;;;;3.36;50.62;102536.41;4981318;28;96793;-76
2021/10/24 05:01:33;;;;;;;1999.90;999.90;;;;;;;3.44;50.62;102540.56;4960788;28;97009;-73
2021/10/24 05:04:02;;;;;;;1999.90;999.90;;;;;;;3.47;50.68;102535.53;4969658;28;98862;-73
2021/10/24 05:06:30;;;;;;;1999.90;999.90;;;;;;;3.48;50.35;102535.66;5004762;28;97824;-73
2021/10/24 05:08:57;;;;;;;1999.90;999.90;;;;;;;3.51;50.22;102532.34;4971248;28;97532;-72
2021/10/24 05:11:25;;;;;;;1999.90;999.90;;;;;;;3.55;49.78;102530.03;4985992;28;97169;-72
2021/10/24 05:13:53;;;;;;;1999.90;999.90;;;;;;;3.19;50.83;102529.81;4970802;28;99304;-72
2021/10/24 05:16:21;;;;;;;1999.90;999.90;;;;;;;3.10;51.11;102540.56;4964548;28;99418;-72
2021/10/24 05:18:50;;;;;;;1999.90;999.90;;;;;;;3.00;51.43;102537.09;4982349;28;96694;-73
2021/10/24 05:21:18;;;;;;;1999.90;999.90;;;;;;;2.96;51.27;102532.38;4981847;28;96991;-72
2021/10/24 05:23:46;;;;;;;1999.90;999.90;;;;;;;2.85;51.82;102543.75;4969890;28;101627;-74
2021/10/24 05:26:14;;;;;;;1999.90;999.90;;;;;;;2.80;51.81;102545.09;4984807;28;97915;-72
2021/10/24 05:28:41;;;;;;;1999.90;999.90;;;;;;;2.72;52.02;102539.22;4970408;28;99498;-73
2021/10/24 05:31:10;;;;;;;1999.90;999.90;;;;;;;2.67;52.02;102542.25;4964217;28;97556;-72
2021/10/24 05:33:44;;;;;;;1999.90;999.90;;;;;;;2.58;52.38;102544.16;4987031;28;98563;-74
2021/10/24 05:36:26;;;;;;;1999.90;999.90;;;;;;;2.57;52.08;102539.66;4969103;28;99197;-73
2021/10/24 05:38:54;;;;;;;1999.90;999.90;;;;;;;2.57;52.04;102544.91;4971113;28;96859;-72
2021/10/24 05:41:27;;;;;;;1999.90;999.90;;;;;;;2.51;52.11;102541.81;4974898;28;96801;-73
2021/10/24 05:43:56;;;;;;;1999.90;999.90;;;;;;;2.44;52.46;102536.88;4989412;28;98855;-74
2021/10/24 05:46:25;;;;;;;1999.90;999.90;;;;;;;2.40;52.18;102529.53;4972546;28;99164;-72
2021/10/24 05:48:54;;;;;;;1999.90;999.90;;;;;;;2.36;51.69;102532.69;4983616;28;97102;-75
2021/10/24 05:51:24;;;;;;;1999.90;999.90;;;;;;;2.36;51.78;102533.59;4976694;28;97453;-72
2021/10/24 05:53:55;;;;;;;1999.90;999.90;;;;;;;2.28;52.31;102539.00;4976800;28;100676;-76
2021/10/24 05:56:30;;;;;;;1999.90;999.90;;;;;;;2.34;51.67;102537.81;4975132;28;99572;-74
2021/10/24 05:59:00;;;;;;;1999.90;999.90;;;;;;;2.30;52.40;102535.72;4993220;28;96649;-72
2021/10/24 06:01:42;;;;;;;1999.90;999.90;;;;;;;2.29;52.16;102532.97;4974967;28;98456;-72
2021/10/24 06:04:29;;;;;;;1999.90;999.90;;;;;;;2.27;51.78;102529.31;4988748;28;98201;-72
2021/10/24 06:07:23;;;;;;;1999.90;999.90;;;;;;;2.24;51.86;102535.22;4984714;28;97476;-73
2021/10/24 06:10:01;;;;;;;1999.90;999.90;;;;;;;2.25;52.08;102536.13;4973871;28;96869;-74
2021/10/24 06:12:43;;;;;;;1999.90;999.90;;;;;;;2.18;51.93;102539.97;4987099;28;96831;-73
2021/10/24 06:15:15;;;;;;;1999.90;999.90;;;;;;;2.15;52.50;102537.06;4965772;28;98924;-74
2021/10/24 06:17:44;;;;;;;1999.90;999.90;;;;;;;2.17;52.15;102533.81;4986032;28;99377;-73
2021/10/24 06:20:13;;;;;;;1999.90;999.90;;;;;;;2.17;52.29;102536.44;4972365;28;97263;-70
2021/10/24 06:22:41;;;;;;;1999.90;999.90;;;;;;;2.16;52.13;102534.56;4972664;28;97192;-70
2021/10/24 06:25:13;;;;;;;1999.90;999.90;;;;;;;2.23;52.09;102540.34;4971955;28;97927;-71
2021/10/24 06:27:47;;;;;;;1999.90;999.90;;;;;;;2.24;51.98;102543.09;4985336;28;97643;-72
2021/10/24 06:30:21;;;;;;;1999.90;999.90;;;;;;;2.21;52.14;102540.22;4986957;28;96770;-72
2021/10/24 06:33:27;;;;;;;1999.90;999.90;;;;;;;2.23;51.79;102540.34;4985466;28;96745;-74
2021/10/24 06:36:21;;;;;;;1999.90;999.90;;;;;;;2.07;52.45;102541.66;4981884;28;99415;-74
2021/10/24 06:39:15;;;;;;;1999.90;999.90;;;;;;;2.05;52.43;102537.97;4966775;28;100830;-74
2021/10/24 06:41:45;;;;;;;1999.90;999.90;;;;;;;2.04;52.65;102538.78;4979466;28;97133;-72
2021/10/24 06:44:20;;;;;;;1999.90;999.90;;;;;;;2.04;52.96;102538.78;4988601;28;96745;-74
2021/10/24 06:47:06;;;;;;;1999.90;999.90;;;;;;;2.09;52.35;102531.34;5001993;28;99340;-71
2021/10/24 06:49:37;;;;;;;1999.90;999.90;;;;;;;2.15;52.37;102535.38;4981970;28;97835;-71
2021/10/24 06:52:28;;;;;;;1999.90;999.90;;;;;;;2.11;52.68;102534.97;4985065;28;98071;-72
2021/10/24 06:55:11;;;;;;;1999.90;999.90;;;;;;;2.15;52.07;102537.06;5004546;28;97154;-70
2021/10/24 06:57:59;;;;;;;1999.90;999.90;;;;;;;2.17;52.18;102531.19;4984601;28;97566;-70
2021/10/24 07:00:50;;;;;;;1999.90;999.90;;;;;;;2.18;51.96;102538.25;4959634;28;97130;-71
2021/10/24 07:03:36;;;;;;;1999.90;999.90;;;;;;;2.22;52.30;102528.00;4984001;28;97747;-72
2021/10/24 07:06:31;;;;;;;1999.90;999.90;;;;;;;2.18;52.46;102538.25;4967798;28;96959;-71
2021/10/24 07:09:21;;;;;;;1999.90;999.90;;;;;;;2.26;52.01;102535.31;4976116;28;98109;-73
2021/10/24 07:12:09;;;;;;;1999.90;999.90;;;;;;;2.38;51.48;102531.09;4981806;28;100845;-71
2021/10/24 07:14:39;;;;;;;1999.90;999.90;;;;;;;2.39;51.94;102538.19;4976336;28;98629;-70
2021/10/24 07:17:06;;;;;;;1999.90;999.90;;;;;;;2.47;51.26;102540.66;4985552;28;96992;-71
2021/10/24 07:19:34;;;;;;;1999.90;999.90;;;;;;;2.47;51.75;102545.91;4982562;28;99556;-72
2021/10/24 07:22:09;;;;;;;1999.90;999.90;;;;;;;2.51;51.59;102542.72;4990760;28;100437;-71
2021/10/24 07:25:15;;;;;;;1999.90;999.90;;;;;;;2.54;51.92;102545.63;4982846;28;96974;-69
2021/10/24 07:27:43;;;;;;;1999.90;999.90;;;;;;;2.59;51.85;102540.72;4968479;28;98255;-71
2021/10/24 07:30:13;;;;;;;1999.90;999.90;;;;;;;2.63;51.47;102542.81;4969058;28;99341;-70
2021/10/24 07:32:47;;;;;;;1999.90;999.90;;;;;;;2.57;52.19;102532.72;4976501;28;98581;-72
2021/10/24 07:35:33;;;;;;;1999.90;999.90;;;;;;;2.65;52.17;102543.84;4981400;28;96845;-71
2021/10/24 07:38:04;;;;;;;1999.90;999.90;;;;;;;2.67;51.70;102545.81;4981156;28;96948;-70
2021/10/24 07:40:43;;;;;;;1999.90;999.90;;;;;;;2.67;51.66;102540.56;4985303;28;99312;-70
2021/10/24 07:43:14;;;;;;;1999.90;999.90;;;;;;;2.82;50.99;102540.88;4962681;28;100933;-70
2021/10/24 07:45:45;;;;;;;1999.90;999.90;;;;;;;2.78;51.93;102539.72;4965203;28;98603;-70
2021/10/24 07:48:13;;;;;;;1999.90;999.90;;;;;;;2.77;51.90;102544.81;4965864;28;96818;-71
2021/10/24 07:50:41;;;;;;;1999.90;999.90;;;;;;;2.74;51.74;102535.00;4966722;28;97628;-71
2021/10/24 07:53:18;;;;;;;1999.90;999.90;;;;;;;2.72;52.10;102541.84;4963271;28;100818;-71
2021/10/24 07:55:46;;;;;;;1999.90;999.90;;;;;;;2.74;51.96;102540.25;4982162;28;96821;-72
2021/10/24 07:58:26;;;;;;;1999.90;999.90;;;;;;;2.81;51.71;102536.41;4984335;28;96826;-73
2021/10/24 08:00:55;;;;;;;1999.90;999.90;;;;;;;2.83;52.34;102534.81;4963298;28;100552;-72
2021/10/24 08:03:23;;;;;;;1999.90;999.90;;;;;;;2.86;51.92;102535.97;4983253;28;99392;-72
2021/10/24 08:05:56;;;;;;;1999.90;999.90;;;;;;;2.93;51.65;102533.03;4968389;28;96891;-73
2021/10/24 08:08:25;;;;;;;1999.90;999.90;;;;;;;3.03;51.66;102530.34;4993440;28;97019;-71
2021/10/24 08:10:53;;;;;;;1999.90;999.90;;;;;;;3.09;51.57;102535.19;4977239;28;97610;-74
2021/10/24 08:13:21;;;;;;;1999.90;999.90;;;;;;;3.10;52.11;102529.09;4976454;28;97771;-71
2021/10/24 08:15:51;;;;;;;1999.90;999.90;;;;;;;3.17;51.35;102523.53;4981747;28;97200;-71
2021/10/24 08:18:20;;;;;;;1999.90;999.90;;;;;;;3.27;50.87;102522.53;4980634;28;97183;-74
2021/10/24 08:21:14;;;;;;;1999.90;999.90;;;;;;;3.21;51.82;102521.28;4975703;28;97883;-74
2021/10/24 08:23:46;;;;;;;1999.90;999.90;;;;;;;3.20;51.46;102515.91;4979345;28;97907;-72
2021/10/24 08:26:16;;;;;;;1999.90;999.90;;;;;;;3.34;51.04;102507.34;4969316;28;96839;-73
2021/10/24 08:28:45;;;;;;;1999.90;999.90;;;;;;;3.38;51.45;102512.06;4983820;28;97045;-73
2021/10/24 08:31:35;;;;;;;1999.90;999.90;;;;;;;3.41;51.41;102514.00;4980975;28;101136;-75
2021/10/24 08:34:06;;;;;;;1999.90;999.90;;;;;;;3.51;51.26;102506.94;4966775;28;99776;-72
2021/10/24 08:36:33;;;;;;;1999.90;999.90;;;;;;;3.50;51.28;102505.09;4983890;28;97094;-71
2021/10/24 08:39:01;;;;;;;1999.90;999.90;;;;;;;3.51;51.69;102501.69;4977846;28;97963;-72
2021/10/24 08:41:29;;;;;;;1999.90;999.90;;;;;;;3.56;51.57;102504.66;4978344;28;99335;-70
2021/10/24 08:43:59;;;;;;;1999.90;999.90;;;;;;;3.67;50.90;102503.78;4981572;28;100361;-71
2021/10/24 08:46:27;;;;;;;1999.90;999.90;;;;;;;3.70;51.66;102497.03;4978871;28;97187;-72
2021/10/24 08:48:56;;;;;;;1999.90;999.90;;;;;;;3.74;51.07;102493.84;4986409;28;96641;-72
2021/10/24 08:51:27;;;;;;;1999.90;999.90;;;;;;;3.81;50.87;102497.84;4985068;28;97260;-72
2021/10/24 08:53:55;;;;;;;1999.90;999.90;;;;;;;3.84;50.95;102493.72;4976261;28;97962;-72
2021/10/24 08:56:28;;;;;;;1999.90;999.90;;;;;;;3.91;51.44;102490.78;4984846;28;96926;-72
2021/10/24 08:58:57;;;;;;;1999.90;999.90;;;;;;;4.00;50.93;102485.28;4985593;28;97060;-72
2021/10/24 09:01:25;;;;;;;1999.90;999.90;;;;;;;4.00;50.99;102491.47;4984546;28;97829;-70
2021/10/24 09:04:04;;;;;;;1999.90;999.90;;;;;;;4.07;51.17;102491.13;4982595;28;98131;-71
2021/10/24 09:06:55;;;;;;;1999.90;999.90;;;;;;;4.12;50.78;102481.81;4981752;28;97296;-70
2021/10/24 09:09:27;;;;;;;1999.90;999.90;;;;;;;4.18;50.80;102482.28;4981963;28;97216;-72
2021/10/24 09:11:57;;;;;;;1999.90;999.90;;;;;;;4.46;50.44;102473.75;4970232;28;98471;-74
2021/10/24 09:14:40;;;;;;;1999.90;999.90;;;;;;;4.62;50.05;102481.97;4981436;28;97672;-71
2021/10/24 09:17:09;;;;;;;1999.90;999.90;;;;;;;4.59;50.59;102472.09;4966584;28;97243;-73
2021/10/24 09:19:39;;;;;;;1999.90;999.90;;;;;;;4.63;50.61;102474.16;4966816;28;97910;-74
2021/10/24 09:22:19;;;;;;;1999.90;999.90;;;;;;;4.65;50.41;102472.56;4983072;28;97762;-71
2021/10/24 09:25:07;;;;;;;1999.90;999.90;;;;;;;4.85;50.06;102458.13;4973439;28;100407;-73
2021/10/24 09:27:43;;;;;;;1999.90;999.90;;;;;;;4.79;50.73;102463.00;4985614;28;96842;-73
2021/10/24 09:30:12;;;;;;;1999.90;999.90;;;;;;;4.87;50.42;102453.88;4985039;28;97068;-73
2021/10/24 09:32:48;;;;;;;1999.90;999.90;;;;;;;4.89;50.29;102460.19;4982487;28;100428;-74
2021/10/24 09:35:16;;;;;;;1999.90;999.90;;;;;;;4.91;50.28;102458.59;4959354;28;99791;-73
2021/10/24 09:38:06;;;;;;;1999.90;999.90;;;;;;;5.02;50.11;102460.25;4979014;28;97132;-73
2021/10/24 09:40:48;;;;;;;1999.90;999.90;;;;;;;5.02;50.29;102455.94;4977713;28;97324;-74
2021/10/24 09:43:20;;;;;;;1999.90;999.90;;;;;;;5.23;49.59;102458.25;4982088;28;98782;-72
2021/10/24 09:45:50;;;;;;;1999.90;999.90;;;;;;;5.32;49.42;102458.88;4977083;28;99149;-75
2021/10/24 09:48:20;;;;;;;1999.90;999.90;;;;;;;5.33;49.75;102453.69;4974253;28;97818;-73
2021/10/24 09:50:51;;;;;;;1999.90;999.90;;;;;;;5.36;49.34;102443.31;4977948;28;97046;-73
2021/10/24 09:53:22;;;;;;;1999.90;999.90;;;;;;;5.48;49.19;102448.53;4978823;28;100685;-72
2021/10/24 09:56:05;;;;;;;1999.90;999.90;;;;;;;5.65;48.89;102445.34;4981808;28;98577;-73
2021/10/24 09:58:34;;;;;;;1999.90;999.90;;;;;;;5.70;48.76;102444.81;4979896;28;97838;-74
2021/10/24 10:01:03;;;;;;;1999.90;999.90;;;;;;;5.71;48.75;102444.00;4979834;28;97778;-75
2021/10/24 10:03:31;;;;;;;1999.90;999.90;;;;;;;5.74;48.93;102433.63;4983387;28;98811;-73
2021/10/24 10:05:59;;;;;;;1999.90;999.90;;;;;;;5.80;48.83;102423.47;4984956;28;99927;-72
2021/10/24 10:08:44;;;;;;;1999.90;999.90;;;;;;;5.88;48.45;102417.00;4982574;28;96889;-73
2021/10/24 10:11:19;;;;;;;1999.90;999.90;;;;;;;5.89;48.68;102423.16;4983276;28;96773;-75
2021/10/24 10:13:56;;;;;;;1999.90;999.90;;;;;;;5.98;48.48;102414.13;4982351;28;99850;-74
2021/10/24 10:16:32;;;;;;;1999.90;999.90;;;;;;;6.02;48.40;102413.50;5000248;28;97780;-73
2021/10/24 10:19:04;;;;;;;1999.90;999.90;;;;;;;6.09;48.35;102407.81;4981299;28;97187;-74
2021/10/24 10:21:34;;;;;;;1999.90;999.90;;;;;;;6.17;48.18;102401.31;4981732;28;97117;-73
2021/10/24 10:24:05;;;;;;;1999.90;999.90;;;;;;;6.23;48.10;102395.50;4987228;28;97587;-72
2021/10/24 10:26:35;;;;;;;1999.90;999.90;;;;;;;6.24;48.09;102385.00;4982076;28;100827;-71
2021/10/24 10:29:04;;;;;;;1999.90;999.90;;;;;;;6.30;48.20;102379.25;4984169;28;97246;-74
2021/10/24 10:31:33;;;;;;;1999.90;999.90;;;;;;;6.42;47.97;102387.94;4987936;28;97416;-75
2021/10/24 10:34:02;;;;;;;1999.90;999.90;;;;;;;6.54;47.61;102385.16;4989389;28;98737;-72
2021/10/24 10:36:59;;;;;;;1999.90;999.90;;;;;;;6.54;46.83;102378.16;4966340;28;99161;-72
2021/10/24 10:39:44;;;;;;;1999.90;999.90;;;;;;;6.54;46.86;102382.53;4982333;28;96926;-73
2021/10/24 10:42:52;;;;;;;1999.90;999.90;;;;;;;6.60;47.07;102382.88;4996490;28;97015;-74
2021/10/24 10:45:27;;;;;;;1999.90;999.90;;;;;;;6.61;47.31;102388.28;4983632;28;96677;-74
2021/10/24 10:47:57;;;;;;;1999.90;999.90;;;;;;;6.67;47.36;102379.84;5007219;28;100089;-72
2021/10/24 10:50:47;;;;;;;1999.90;999.90;;;;;;;6.72;47.34;102379.28;4981268;28;97147;-74
2021/10/24 10:53:38;;;;;;;1999.90;999.90;;;;;;;6.77;47.48;102372.56;4988754;28;96978;-71
2021/10/24 10:56:20;;;;;;;1999.90;999.90;;;;;;;6.87;46.66;102369.63;4964867;28;99203;-76
2021/10/24 10:58:49;;;;;;;1999.90;999.90;;;;;;;6.87;47.03;102356.41;4977487;28;97510;-71
2021/10/24 11:01:20;;;;;;;1999.90;999.90;;;;;;;6.94;47.29;102355.06;4967648;28;99119;-71
2021/10/24 11:03:49;;;;;;;1999.90;999.90;;;;;;;6.95;47.16;102356.88;4988843;28;96804;-72
2021/10/24 11:06:52;;;;;;;1999.90;999.90;;;;;;;6.98;46.54;102346.50;4980523;28;98211;-75
2021/10/24 11:09:43;;;;;;;1999.90;999.90;;;;;;;7.05;46.64;102341.63;4966035;28;99311;-71
2021/10/24 11:12:55;;;;;;;1999.90;999.90;;;;;;;7.11;46.15;102343.72;4964551;28;96751;-72
2021/10/24 11:15:31;;;;;;;1999.90;999.90;;;;;;;7.20;46.54;102331.03;4985740;28;97534;-71
2021/10/24 11:18:02;;;;;;;1999.90;999.90;;;;;;;7.25;46.76;102327.84;4985082;28;97736;-71
2021/10/24 11:20:45;;;;;;;1999.90;999.90;;;;;;;7.25;45.94;102324.31;4987952;28;99561;-73